Time;durP1;ratioP1;P1;durP2;ratioP2;P2;SDS_P1;SDS_P2;PMS_P1;PMS_P2;Temp;Humidity;BMP_temperature;BMP_pressure;BME280_temperature;BME280_humidity;BME280_pressure;Samples;Min_cycle;Max_cycle;Signal;HPM_P1;HPM_P2
2022/05/14 00:01:24;;;;;;;19.88;6.90;;;12.90;99.90;;;;;;5084768;28;20054;-55
2022/05/14 00:03:49;;;;;;;21.88;7.45;;;12.90;99.90;;;;;;5063922;28;20069;-61
2022/05/14 00:06:19;;;;;;;23.45;8.20;;;12.90;99.90;;;;;;5080924;28;20050;-57
2022/05/14 00:08:46;;;;;;;21.65;7.20;;;12.80;99.90;;;;;;5060054;28;20530;-47
2022/05/14 00:13:57;;;;;;;23.27;6.57;;;12.80;99.90;;;;;;5062817;28;20051;-48
2022/05/14 00:16:24;;;;;;;26.50;8.32;;;12.80;99.90;;;;;;5075045;28;20033;-57
2022/05/14 00:18:54;;;;;;;29.00;8.13;;;12.80;99.90;;;;;;5079393;28;20055;-52
2022/05/14 00:21:21;;;;;;;28.20;7.38;;;12.80;99.90;;;;;;5075125;28;20725;-48
2022/05/14 00:23:47;;;;;;;29.00;7.80;;;12.80;99.90;;;;;;5059719;28;20237;-51
2022/05/14 00:26:13;;;;;;;20.10;7.15;;;12.80;99.90;;;;;;5062836;28;20048;-50
2022/05/14 00:28:40;;;;;;;24.70;7.93;;;12.80;99.90;;;;;;5081645;28;20048;-53
2022/05/14 00:31:06;;;;;;;27.00;7.93;;;12.80;99.90;;;;;;5072953;28;20062;-53
2022/05/14 00:33:32;;;;;;;29.98;7.63;;;12.80;99.90;;;;;;5062202;28;20131;-53
2022/05/14 00:35:58;;;;;;;20.27;6.50;;;12.80;99.90;;;;;;5081208;28;20044;-54
2022/05/14 00:38:24;;;;;;;28.85;7.55;;;12.80;99.90;;;;;;5080147;28;20047;-54
2022/05/14 00:40:58;;;;;;;27.00;7.47;;;12.80;99.90;;;;;;5081077;28;20620;-49
2022/05/14 00:43:25;;;;;;;29.65;7.28;;;12.80;99.90;;;;;;5075129;28;20627;-50
2022/05/14 00:46:00;;;;;;;22.85;7.10;;;12.70;99.90;;;;;;5059030;28;20498;-49
2022/05/14 00:48:34;;;;;;;32.72;8.25;;;12.70;99.90;;;;;;5061387;28;20059;-49
2022/05/14 00:51:00;;;;;;;25.92;7.57;;;12.70;99.90;;;;;;5080737;28;20086;-54
2022/05/14 00:53:32;;;;;;;30.92;7.72;;;12.60;99.90;;;;;;5081336;28;20502;-55
2022/05/14 00:56:02;;;;;;;26.80;7.10;;;12.50;99.90;;;;;;5080726;28;20052;-54
2022/05/14 00:58:40;;;;;;;24.73;7.05;;;12.50;99.90;;;;;;5061017;28;20453;-55
2022/05/14 01:01:07;;;;;;;22.35;6.95;;;12.40;99.90;;;;;;5059383;28;20572;-49
2022/05/14 01:03:38;;;;;;;49.15;10.38;;;12.40;99.90;;;;;;5059478;28;20105;-51
2022/05/14 01:06:06;;;;;;;28.58;8.60;;;12.40;99.90;;;;;;5079463;28;20132;-52
2022/05/14 01:08:33;;;;;;;27.10;7.88;;;12.40;99.90;;;;;;5080566;28;20534;-54
2022/05/14 01:10:59;;;;;;;28.05;7.97;;;12.30;99.90;;;;;;5062761;28;20052;-52
2022/05/14 01:13:26;;;;;;;25.95;8.38;;;12.30;99.90;;;;;;5084255;28;20331;-53
2022/05/14 01:15:57;;;;;;;26.40;7.75;;;12.30;99.90;;;;;;5081532;28;20109;-54
2022/05/14 01:18:26;;;;;;;32.22;8.55;;;12.30;99.90;;;;;;5080534;28;20059;-54
2022/05/14 01:21:05;;;;;;;34.15;9.90;;;12.30;99.90;;;;;;5076681;28;20047;-56
2022/05/14 01:26:42;;;;;;;26.90;8.90;;;12.40;99.90;;;;;;5076624;28;20056;-53
2022/05/14 01:29:09;;;;;;;30.65;9.85;;;12.30;99.90;;;;;;5081046;28;20405;-51
2022/05/14 01:31:39;;;;;;;25.23;8.15;;;12.30;99.90;;;;;;5080479;28;20046;-54
2022/05/14 01:34:10;;;;;;;25.05;9.10;;;12.30;99.90;;;;;;5064458;28;20052;-50
2022/05/14 01:36:38;;;;;;;27.85;9.38;;;12.30;99.90;;;;;;5084870;28;20082;-53
2022/05/14 01:39:05;;;;;;;25.85;9.40;;;12.30;99.90;;;;;;5084584;28;20039;-55
2022/05/14 01:41:30;;;;;;;30.60;9.25;;;12.20;99.90;;;;;;5083416;28;20040;-58
2022/05/14 01:43:57;;;;;;;26.75;9.52;;;12.20;99.90;;;;;;5085157;28;20093;-52
2022/05/14 01:46:23;;;;;;;36.80;9.70;;;12.10;99.90;;;;;;5084430;28;20469;-56
2022/05/14 01:48:49;;;;;;;37.17;11.23;;;12.00;99.90;;;;;;5083733;28;20097;-54
2022/05/14 01:51:16;;;;;;;27.33;10.25;;;12.00;99.90;;;;;;5083441;28;20087;-55
2022/05/14 01:53:42;;;;;;;33.10;9.48;;;11.90;99.90;;;;;;5084753;28;20044;-56
2022/05/14 01:56:08;;;;;;;28.58;10.10;;;11.90;99.90;;;;;;5083106;28;20051;-56
2022/05/14 01:58:37;;;;;;;29.13;10.23;;;11.80;99.90;;;;;;5083937;28;20055;-56
2022/05/14 02:01:35;;;;;;;30.00;9.27;;;11.80;99.90;;;;;;5084021;28;20044;-54
2022/05/14 02:04:06;;;;;;;32.63;9.40;;;11.70;99.90;;;;;;5079540;28;20068;-53
2022/05/14 02:06:32;;;;;;;32.67;10.40;;;11.60;99.90;;;;;;5084329;28;20048;-49
2022/05/14 02:08:59;;;;;;;38.42;10.30;;;11.60;99.90;;;;;;5048863;28;20052;-49
2022/05/14 02:11:26;;;;;;;39.67;10.32;;;11.60;99.90;;;;;;5060483;28;20109;-55
2022/05/14 02:13:54;;;;;;;30.25;10.38;;;11.60;99.90;;;;;;5083648;28;20044;-55
2022/05/14 02:16:20;;;;;;;37.10;12.07;;;11.50;99.90;;;;;;5083859;28;20044;-55
2022/05/14 02:18:46;;;;;;;31.00;10.60;;;11.50;99.90;;;;;;5083633;28;20048;-55
2022/05/14 02:21:12;;;;;;;38.22;11.43;;;11.50;99.90;;;;;;5062107;28;20062;-52
2022/05/14 02:23:38;;;;;;;40.35;11.52;;;11.40;99.90;;;;;;5083740;28;20051;-55
2022/05/14 02:26:10;;;;;;;44.03;12.13;;;11.40;99.90;;;;;;5090022;28;20154;-53
2022/05/14 02:28:36;;;;;;;33.13;11.05;;;11.40;99.90;;;;;;5087222;28;20084;-55
2022/05/14 02:31:02;;;;;;;33.80;10.90;;;11.40;99.90;;;;;;5068423;28;20048;-57
2022/05/14 02:33:29;;;;;;;35.13;11.30;;;11.30;99.90;;;;;;5063198;28;20055;-54
2022/05/14 02:35:56;;;;;;;34.20;12.27;;;11.30;99.90;;;;;;5083879;28;20125;-53
2022/05/14 02:38:22;;;;;;;36.67;11.80;;;11.20;99.90;;;;;;5083538;28;20048;-49
2022/05/14 02:40:48;;;;;;;38.88;12.88;;;11.20;99.90;;;;;;5064601;28;20051;-52
2022/05/14 02:43:14;;;;;;;32.90;12.02;;;11.20;99.90;;;;;;5065516;28;20571;-55
2022/05/14 02:45:40;;;;;;;33.25;11.50;;;11.10;99.90;;;;;;5082922;28;20056;-55
2022/05/14 02:48:10;;;;;;;39.08;11.63;;;11.10;99.90;;;;;;5082518;28;20078;-52
2022/05/14 02:50:35;;;;;;;32.97;12.10;;;11.10;99.90;;;;;;5064936;28;20169;-52
2022/05/14 02:53:01;;;;;;;37.03;13.57;;;11.00;99.90;;;;;;5065679;28;20060;-51
2022/05/14 02:55:27;;;;;;;32.10;11.98;;;11.00;99.90;;;;;;5083866;28;20044;-50
2022/05/14 02:57:53;;;;;;;41.97;12.32;;;11.00;99.90;;;;;;5083688;28;20090;-50
2022/05/14 03:00:20;;;;;;;33.38;11.60;;;11.00;99.90;;;;;;5064688;28;20081;-51
2022/05/14 03:02:46;;;;;;;41.85;12.30;;;11.00;99.90;;;;;;5083477;28;20048;-52
2022/05/14 03:05:15;;;;;;;42.55;10.90;;;11.00;99.90;;;;;;5082254;28;20100;-50
2022/05/14 03:07:41;;;;;;;38.28;11.77;;;10.90;99.90;;;;;;5082288;28;20485;-50
2022/05/14 03:10:08;;;;;;;45.40;14.43;;;10.90;99.90;;;;;;5082109;28;20075;-54
2022/05/14 03:12:33;;;;;;;35.58;11.10;;;10.90;99.90;;;;;;5081964;28;20097;-56
2022/05/14 03:15:01;;;;;;;34.67;11.52;;;10.90;99.90;;;;;;5082349;28;20043;-54
2022/05/14 03:17:27;;;;;;;43.42;12.07;;;10.90;99.90;;;;;;5080740;28;20044;-51
2022/05/14 03:19:52;;;;;;;38.95;12.00;;;10.90;99.90;;;;;;5063163;28;20395;-57
2022/05/14 03:22:19;;;;;;;42.13;13.07;;;10.80;99.90;;;;;;5080772;28;20549;-55
2022/05/14 03:24:45;;;;;;;36.45;11.70;;;10.80;99.90;;;;;;5089173;28;20481;-55
2022/05/14 03:27:12;;;;;;;43.35;11.63;;;10.80;99.90;;;;;;5082194;28;20464;-46
2022/05/14 03:29:39;;;;;;;41.90;12.38;;;10.70;99.90;;;;;;5064366;28;20486;-54
2022/05/14 03:32:06;;;;;;;40.15;12.02;;;10.70;99.90;;;;;;5064115;28;20397;-50
2022/05/14 03:34:32;;;;;;;36.50;12.05;;;10.70;99.90;;;;;;5082775;28;20388;-48
2022/05/14 03:36:58;;;;;;;40.70;12.25;;;10.60;99.90;;;;;;5083230;28;20054;-56
2022/05/14 03:39:24;;;;;;;35.45;12.45;;;10.60;99.90;;;;;;5063615;28;20044;-57
2022/05/14 03:41:50;;;;;;;41.78;12.63;;;10.60;99.90;;;;;;5084633;28;20556;-50
2022/05/14 03:44:17;;;;;;;39.97;13.77;;;10.60;99.90;;;;;;5083771;28;20121;-52
2022/05/14 03:46:43;;;;;;;38.83;12.93;;;10.60;99.90;;;;;;5083210;28;20100;-56
2022/05/14 03:49:09;;;;;;;32.20;12.38;;;10.60;99.90;;;;;;5090619;28;20048;-54
2022/05/14 03:51:35;;;;;;;43.55;12.35;;;10.60;99.90;;;;;;5089929;28;20056;-51
2022/05/14 03:54:01;;;;;;;36.67;12.10;;;10.70;99.90;;;;;;5064022;28;20147;-51
2022/05/14 03:56:27;;;;;;;40.45;13.02;;;10.70;99.90;;;;;;5080790;28;20083;-52
2022/05/14 03:58:53;;;;;;;43.75;13.50;;;10.70;99.90;;;;;;5064378;28;20127;-56
2022/05/14 04:01:19;;;;;;;35.72;12.38;;;10.80;99.90;;;;;;5063178;28;20044;-55
2022/05/14 04:03:45;;;;;;;37.88;12.10;;;10.70;99.90;;;;;;5090506;28;20538;-57
2022/05/14 04:06:11;;;;;;;39.80;12.48;;;10.80;99.90;;;;;;5086969;28;20070;-53
2022/05/14 04:08:38;;;;;;;37.30;11.57;;;10.80;99.90;;;;;;5088471;28;20148;-55
2022/05/14 04:11:04;;;;;;;31.73;10.93;;;10.80;99.90;;;;;;5082409;28;20052;-51
2022/05/14 04:13:30;;;;;;;46.25;13.23;;;10.90;99.90;;;;;;5086548;28;20065;-51
2022/05/14 04:15:55;;;;;;;39.35;12.98;;;10.90;99.90;;;;;;5080979;28;20059;-54
2022/05/14 04:18:24;;;;;;;32.78;11.55;;;11.00;99.90;;;;;;5062824;28;20044;-51
2022/05/14 04:20:57;;;;;;;42.20;12.32;;;11.10;99.90;;;;;;5080674;28;20058;-54
2022/05/14 04:23:25;;;;;;;40.40;11.88;;;11.20;99.90;;;;;;5062989;28;20044;-56
2022/05/14 04:25:52;;;;;;;38.08;13.27;;;11.20;99.90;;;;;;5087861;28;20101;-54
2022/05/14 04:28:19;;;;;;;40.47;12.00;;;11.30;99.90;;;;;;5062632;28;20047;-52
2022/05/14 04:30:45;;;;;;;37.50;10.77;;;11.40;99.90;;;;;;5078106;28;20245;-51
2022/05/14 04:33:12;;;;;;;36.47;11.90;;;11.50;99.90;;;;;;5062504;28;20056;-54
2022/05/14 04:35:37;;;;;;;40.90;10.60;;;11.70;99.90;;;;;;5057813;28;20447;-53
2022/05/14 04:38:03;;;;;;;40.97;12.63;;;12.10;99.90;;;;;;5059804;28;20055;-55
2022/05/14 04:40:29;;;;;;;36.92;11.48;;;12.70;99.90;;;;;;5061268;28;20123;-52
2022/05/14 04:42:55;;;;;;;36.75;11.57;;;13.30;99.90;;;;;;5060961;28;20044;-54
2022/05/14 04:45:21;;;;;;;31.30;9.80;;;13.90;99.90;;;;;;5060967;28;20140;-50
2022/05/14 04:47:47;;;;;;;37.50;11.05;;;14.60;99.90;;;;;;5059687;28;20099;-56
2022/05/14 04:50:13;;;;;;;37.78;11.38;;;15.10;99.90;;;;;;5060607;28;20101;-52
2022/05/14 04:52:39;;;;;;;34.35;10.70;;;15.70;99.90;;;;;;5060307;28;20141;-51
2022/05/14 04:55:06;;;;;;;31.77;9.77;;;16.20;99.90;;;;;;5061431;28;20163;-52
2022/05/14 04:57:32;;;;;;;28.52;10.38;;;16.80;99.90;;;;;;5064293;28;20056;-52
2022/05/14 05:00:02;;;;;;;26.17;9.23;;;17.30;99.90;;;;;;5059829;28;20494;-60
2022/05/14 05:05:13;;;;;;;31.13;9.98;;;18.20;99.90;;;;;;5057824;28;20052;-55
2022/05/14 05:07:39;;;;;;;24.42;9.50;;;18.50;99.90;;;;;;5061334;28;20056;-53
2022/05/14 05:10:06;;;;;;;29.05;10.40;;;18.80;99.90;;;;;;5065283;28;20044;-50
2022/05/14 05:12:32;;;;;;;28.27;9.00;;;19.30;99.90;;;;;;5064395;28;20180;-46
2022/05/14 05:14:58;;;;;;;26.10;8.88;;;19.70;99.90;;;;;;5064757;28;20207;-51
2022/05/14 05:17:23;;;;;;;23.35;9.43;;;20.20;99.90;;;;;;5063397;28;20122;-52
2022/05/14 05:19:49;;;;;;;21.63;8.30;;;20.70;99.90;;;;;;5036852;28;20047;-54
2022/05/14 05:22:15;;;;;;;27.73;9.73;;;21.00;99.90;;;;;;5061518;28;20134;-50
2022/05/14 05:24:41;;;;;;;26.83;8.77;;;21.30;99.90;;;;;;5069701;28;20055;-53
2022/05/14 05:27:07;;;;;;;27.83;9.43;;;21.60;99.90;;;;;;5064947;28;20047;-52
2022/05/14 05:29:33;;;;;;;29.02;9.80;;;22.00;99.90;;;;;;5070733;28;20059;-48
2022/05/14 05:31:59;;;;;;;25.05;9.02;;;22.10;99.90;;;;;;5063702;28;20093;-51
2022/05/14 05:34:25;;;;;;;28.38;8.73;;;22.00;99.90;;;;;;5064351;28;20044;-50
2022/05/14 05:36:52;;;;;;;24.75;8.75;;;22.00;99.90;;;;;;5082893;28;20056;-54
2022/05/14 05:39:18;;;;;;;23.85;8.45;;;21.90;99.90;;;;;;5065820;28;20105;-53
2022/05/14 05:41:44;;;;;;;23.20;7.57;;;21.70;99.90;;;;;;5084306;28;20125;-54
2022/05/14 05:44:09;;;;;;;24.05;8.05;;;22.00;99.90;;;;;;5065877;28;20056;-47
2022/05/14 05:46:35;;;;;;;23.92;8.45;;;22.30;99.90;;;;;;5067902;28;20131;-52
2022/05/14 05:49:01;;;;;;;31.05;9.10;;;22.80;99.90;;;;;;5098523;28;20650;-52
2022/05/14 05:51:27;;;;;;;20.60;7.60;;;23.50;99.90;;;;;;5077960;28;20151;-53
2022/05/14 05:56:46;;;;;;;19.75;7.65;;;24.50;97.60;;;;;;5081228;28;20138;-53
2022/05/14 05:59:13;;;;;;;23.65;7.75;;;24.60;97.30;;;;;;5066171;28;20055;-52
2022/05/14 06:01:39;;;;;;;20.63;6.68;;;24.90;95.80;;;;;;5066358;28;20398;-54
2022/05/14 06:04:05;;;;;;;24.20;7.10;;;25.20;96.00;;;;;;5093646;28;20104;-54
2022/05/14 06:06:31;;;;;;;16.30;6.63;;;25.80;95.00;;;;;;5066684;28;20167;-53
2022/05/14 06:08:58;;;;;;;19.60;6.40;;;26.20;94.00;;;;;;5085818;28;20055;-50
2022/05/14 06:11:25;;;;;;;19.13;6.80;;;26.70;93.20;;;;;;5100399;28;20039;-51
2022/05/14 06:13:51;;;;;;;20.17;7.35;;;27.10;92.30;;;;;;5087312;28;20062;-50
2022/05/14 06:16:17;;;;;;;19.83;7.30;;;27.60;91.40;;;;;;5084118;28;20109;-53
2022/05/14 06:18:44;;;;;;;22.15;7.40;;;27.60;90.10;;;;;;5083139;28;20040;-51
2022/05/14 06:21:11;;;;;;;18.38;6.57;;;27.80;89.30;;;;;;5044935;28;20059;-53
2022/05/14 06:23:37;;;;;;;17.50;6.45;;;26.90;87.00;;;;;;5065701;28;20091;-54
2022/05/14 06:26:03;;;;;;;21.50;6.47;;;26.10;87.80;;;;;;5090309;28;20383;-53
2022/05/14 06:28:29;;;;;;;18.65;6.57;;;26.20;89.40;;;;;;5074547;28;20402;-52
2022/05/14 06:30:58;;;;;;;19.02;6.95;;;27.00;89.30;;;;;;5064293;28;20054;-53
2022/05/14 06:37:05;;;;;;;18.85;6.30;;;27.70;85.00;;;;;;5075539;28;20133;-51
2022/05/14 06:39:31;;;;;;;21.60;7.60;;;28.10;85.30;;;;;;5082756;28;20464;-53
2022/05/14 06:41:58;;;;;;;18.23;6.50;;;28.30;82.80;;;;;;5081708;28;20051;-51
2022/05/14 06:44:24;;;;;;;22.10;7.15;;;28.20;82.60;;;;;;5083063;28;20040;-55
2022/05/14 06:46:49;;;;;;;19.13;6.80;;;27.90;81.70;;;;;;5082137;28;20479;-54
2022/05/14 06:49:15;;;;;;;23.05;6.82;;;28.10;83.70;;;;;;5064258;28;20387;-52
2022/05/14 06:51:41;;;;;;;18.48;6.93;;;28.20;82.90;;;;;;5084776;28;20067;-48
2022/05/14 06:54:09;;;;;;;42.67;8.57;;;28.20;82.20;;;;;;5082898;28;20044;-53
2022/05/14 06:56:40;;;;;;;19.80;6.55;;;28.20;80.50;;;;;;5082490;28;20089;-48
2022/05/14 06:59:09;;;;;;;20.83;7.38;;;28.20;79.70;;;;;;5082093;28;20508;-54
2022/05/14 07:01:38;;;;;;;15.48;6.68;;;28.30;79.40;;;;;;5081407;28;20044;-53
2022/05/14 07:06:51;;;;;;;21.73;7.10;;;28.40;79.40;;;;;;5075368;28;20410;-50
2022/05/14 07:09:24;;;;;;;19.77;6.90;;;28.00;79.20;;;;;;5082313;28;20044;-51
2022/05/14 07:11:56;;;;;;;19.70;6.40;;;27.00;79.70;;;;;;5062062;28;20383;-49
2022/05/14 07:14:23;;;;;;;20.02;6.90;;;26.50;79.70;;;;;;5079805;28;20051;-56
2022/05/14 07:16:50;;;;;;;18.98;7.20;;;26.00;81.20;;;;;;5076326;28;20048;-55
2022/05/14 07:19:16;;;;;;;23.45;6.95;;;25.60;82.30;;;;;;5082299;28;20044;-53
2022/05/14 07:21:44;;;;;;;19.17;6.97;;;25.30;81.70;;;;;;5060713;28;20444;-54
2022/05/14 07:24:15;;;;;;;14.73;6.22;;;25.10;83.40;;;;;;5085837;28;20119;-52
2022/05/14 07:26:42;;;;;;;17.63;6.15;;;24.80;83.00;;;;;;5088991;28;20056;-54
2022/05/14 07:29:10;;;;;;;24.73;8.43;;;24.70;83.60;;;;;;5067338;28;20113;-53
2022/05/14 07:31:36;;;;;;;19.20;6.65;;;24.60;83.30;;;;;;5082437;28;20066;-55
2022/05/14 07:34:03;;;;;;;19.50;6.25;;;24.10;82.70;;;;;;5083298;28;20425;-53
2022/05/14 07:36:32;;;;;;;19.38;7.50;;;24.00;83.60;;;;;;5081863;28;20067;-51
2022/05/14 07:39:02;;;;;;;18.73;6.38;;;23.90;84.30;;;;;;5082043;28;20451;-56
2022/05/14 07:41:39;;;;;;;19.65;7.25;;;24.00;85.30;;;;;;5062912;28;20062;-54
2022/05/14 07:44:07;;;;;;;27.70;7.97;;;24.00;86.20;;;;;;5082622;28;20150;-52
2022/05/14 07:46:35;;;;;;;24.35;6.78;;;23.90;85.90;;;;;;5082929;28;20182;-53
2022/05/14 07:49:04;;;;;;;17.73;7.30;;;23.80;85.90;;;;;;5082639;28;20521;-51
2022/05/14 07:51:30;;;;;;;20.85;7.50;;;23.70;86.30;;;;;;5081603;28;20616;-54
2022/05/14 07:53:56;;;;;;;23.23;7.20;;;23.70;85.30;;;;;;5081574;28;20139;-54
2022/05/14 07:56:22;;;;;;;22.80;7.35;;;23.60;86.30;;;;;;5081253;28;20044;-55
2022/05/14 07:58:53;;;;;;;26.58;8.07;;;23.10;86.00;;;;;;5043757;28;20499;-55
2022/05/14 08:01:29;;;;;;;22.80;7.38;;;22.70;87.30;;;;;;5080106;28;20487;-58
2022/05/14 08:03:55;;;;;;;18.95;6.20;;;22.60;88.60;;;;;;5081013;28;20527;-56
2022/05/14 08:06:22;;;;;;;16.88;6.40;;;22.70;88.60;;;;;;5063675;28;20060;-52
2022/05/14 08:08:51;;;;;;;23.42;6.70;;;22.90;89.00;;;;;;5082517;28;20489;-55
2022/05/14 08:11:17;;;;;;;21.50;6.50;;;22.90;88.70;;;;;;5080198;28;20056;-52
2022/05/14 08:13:43;;;;;;;20.17;7.68;;;23.00;88.60;;;;;;5081003;28;20036;-51
2022/05/14 08:16:09;;;;;;;19.58;6.57;;;22.90;87.30;;;;;;5076459;28;20662;-56
2022/05/14 08:18:35;;;;;;;21.52;7.43;;;22.90;86.10;;;;;;5077100;28;20078;-51
2022/05/14 08:24:29;;;;;;;20.60;6.32;;;22.90;86.90;;;;;;5059647;28;20048;-55
2022/05/14 08:26:33;;;;;;;26.13;9.00;;;23.00;86.90;;;;;;5063642;28;20138;-54
2022/05/14 08:28:58;;;;;;;20.67;7.30;;;23.00;87.30;;;;;;5063633;28;20060;-56
2022/05/14 08:31:24;;;;;;;22.02;7.60;;;23.10;88.50;;;;;;5072773;28;20098;-54
2022/05/14 08:33:50;;;;;;;19.52;6.95;;;22.90;87.60;;;;;;5081593;28;20055;-51
2022/05/14 08:36:16;;;;;;;27.45;7.55;;;23.10;89.30;;;;;;5081560;28;20700;-53
2022/05/14 08:38:42;;;;;;;22.70;7.38;;;23.00;88.60;;;;;;5082004;28;20359;-55
2022/05/14 08:41:15;;;;;;;22.23;6.05;;;23.10;88.60;;;;;;5063896;28;20044;-53
2022/05/14 08:44:04;;;;;;;24.92;7.95;;;23.00;89.00;;;;;;5062488;28;20558;-57
2022/05/14 08:46:32;;;;;;;20.80;6.97;;;22.80;88.50;;;;;;5080541;28;20036;-52
2022/05/14 08:49:26;;;;;;;16.63;6.38;;;22.70;88.40;;;;;;5074209;28;20048;-54
2022/05/14 08:51:52;;;;;;;22.33;6.57;;;22.50;87.40;;;;;;5081994;28;20139;-53
2022/05/14 08:54:19;;;;;;;24.38;7.53;;;22.30;88.50;;;;;;5082361;28;20095;-52
2022/05/14 08:57:12;;;;;;;22.25;7.25;;;22.20;89.80;;;;;;5081544;28;20044;-56
2022/05/14 08:59:55;;;;;;;25.13;7.13;;;22.40;90.00;;;;;;5063269;28;20136;-58
2022/05/14 09:02:24;;;;;;;24.35;7.45;;;22.50;90.10;;;;;;5081369;28;20081;-55
2022/05/14 09:04:56;;;;;;;25.00;7.60;;;22.20;89.20;;;;;;5063600;28;20056;-54
2022/05/14 09:07:22;;;;;;;23.05;6.60;;;21.80;89.50;;;;;;5081462;28;20048;-55
2022/05/14 09:09:50;;;;;;;20.13;7.00;;;21.60;90.70;;;;;;5080141;28;20047;-55
2022/05/14 09:12:19;;;;;;;20.60;6.80;;;21.80;91.30;;;;;;5062668;28;20134;-54
2022/05/14 09:14:45;;;;;;;20.75;6.75;;;22.10;90.50;;;;;;5080832;28;20123;-45
2022/05/14 09:17:13;;;;;;;25.17;7.57;;;22.40;89.60;;;;;;5071317;28;20052;-57
2022/05/14 09:19:44;;;;;;;23.17;7.75;;;22.50;87.70;;;;;;5073241;28;20415;-52
2022/05/14 09:22:28;;;;;;;22.83;6.80;;;22.50;88.00;;;;;;5080756;28;20254;-54
2022/05/14 09:25:13;;;;;;;20.30;6.65;;;22.60;89.10;;;;;;5082854;28;20048;-53
2022/05/14 09:28:03;;;;;;;20.80;5.93;;;22.80;90.00;;;;;;5062482;28;20490;-54
2022/05/14 09:30:43;;;;;;;23.38;6.65;;;23.20;88.50;;;;;;5080959;28;20059;-52
2022/05/14 09:33:35;;;;;;;22.67;7.18;;;23.50;86.50;;;;;;5081008;28;20051;-56
2022/05/14 09:36:02;;;;;;;19.57;6.90;;;23.60;85.00;;;;;;5071437;28;20655;-55
2022/05/14 09:38:29;;;;;;;22.15;6.20;;;23.40;85.20;;;;;;5079354;28;20044;-57
2022/05/14 09:41:07;;;;;;;23.13;7.25;;;23.60;86.60;;;;;;5080039;28;20465;-53
2022/05/14 09:43:37;;;;;;;21.70;7.47;;;23.90;87.40;;;;;;5077062;28;20400;-57
2022/05/14 09:46:32;;;;;;;21.90;7.53;;;24.00;86.70;;;;;;5080151;28;20048;-55
2022/05/14 09:49:09;;;;;;;22.92;7.45;;;23.60;84.80;;;;;;5062901;28;20137;-56
2022/05/14 09:52:00;;;;;;;23.75;7.13;;;23.10;85.40;;;;;;5079603;28;20349;-53
2022/05/14 09:54:31;;;;;;;24.45;7.20;;;22.90;85.20;;;;;;5062478;28;20127;-55
2022/05/14 09:57:20;;;;;;;21.88;7.25;;;23.00;85.10;;;;;;5085771;28;20062;-52
2022/05/14 10:00:05;;;;;;;24.52;7.22;;;23.10;86.80;;;;;;5067237;28;20153;-56
2022/05/14 10:02:50;;;;;;;16.75;6.55;;;22.70;85.60;;;;;;5086985;28;20135;-53
2022/05/14 10:05:19;;;;;;;21.55;6.75;;;22.40;86.20;;;;;;5078935;28;20514;-55
2022/05/14 10:08:20;;;;;;;23.17;7.50;;;22.40;86.40;;;;;;5084195;28;20055;-52
2022/05/14 10:10:52;;;;;;;17.10;6.57;;;22.30;88.60;;;;;;5067672;28;20090;-56
2022/05/14 10:13:56;;;;;;;17.08;6.40;;;22.40;87.40;;;;;;5062600;28;20809;-56
2022/05/14 10:16:27;;;;;;;15.18;6.07;;;22.50;84.70;;;;;;5002417;28;20759;-53
2022/05/14 10:19:08;;;;;;;24.15;8.13;;;22.30;85.20;;;;;;5013500;28;20049;-53
2022/05/14 10:21:57;;;;;;;18.15;6.85;;;22.10;86.30;;;;;;5002180;28;20499;-55
2022/05/14 10:27:46;;;;;;;21.42;7.18;;;21.90;87.60;;;;;;5009856;28;20108;-53
2022/05/14 10:30:27;;;;;;;25.35;7.47;;;22.20;88.30;;;;;;5009661;28;20057;-53
2022/05/14 10:33:01;;;;;;;19.73;7.07;;;22.40;90.70;;;;;;5000183;28;20061;-55
2022/05/14 10:35:34;;;;;;;21.13;6.88;;;22.70;87.70;;;;;;4987512;28;20057;-50
2022/05/14 10:38:10;;;;;;;24.55;8.13;;;22.70;86.30;;;;;;5013151;28;20129;-56
2022/05/14 10:40:40;;;;;;;23.00;7.43;;;22.60;85.10;;;;;;5008156;28;20065;-55
2022/05/14 10:43:38;;;;;;;20.20;6.85;;;22.50;85.30;;;;;;4987487;28;20050;-56
2022/05/14 10:46:13;;;;;;;21.73;7.32;;;22.30;84.60;;;;;;5013800;28;20111;-53
2022/05/14 10:49:02;;;;;;;16.05;5.93;;;22.20;85.30;;;;;;5013097;28;20049;-56
2022/05/14 10:51:30;;;;;;;23.67;7.70;;;22.00;86.60;;;;;;5001601;28;20053;-54
2022/05/14 10:53:58;;;;;;;19.67;6.95;;;21.90;87.40;;;;;;5074994;28;20493;-57
2022/05/14 10:56:23;;;;;;;24.23;7.07;;;21.90;86.60;;;;;;5066227;28;20494;-56
2022/05/14 10:59:07;;;;;;;21.98;6.90;;;21.80;86.50;;;;;;5084059;28;20040;-56
2022/05/14 11:01:42;;;;;;;23.27;7.30;;;21.90;85.10;;;;;;5080026;28;20052;-54
2022/05/14 11:04:31;;;;;;;25.25;7.80;;;21.80;85.00;;;;;;5082624;28;20044;-56
2022/05/14 11:07:01;;;;;;;17.38;6.30;;;21.90;86.40;;;;;;5075232;28;20425;-51
2022/05/14 11:09:43;;;;;;;20.80;6.85;;;21.70;86.60;;;;;;5064428;28;20052;-52
2022/05/14 11:12:31;;;;;;;17.65;6.45;;;21.60;86.20;;;;;;5082965;28;20055;-56
2022/05/14 11:14:58;;;;;;;22.60;6.80;;;21.90;88.90;;;;;;5074052;28;20043;-48
2022/05/14 11:17:28;;;;;;;20.83;7.55;;;22.10;86.70;;;;;;5081500;28;20063;-54
2022/05/14 11:20:09;;;;;;;25.83;7.75;;;22.40;86.40;;;;;;5078674;28;20570;-53
2022/05/14 11:22:39;;;;;;;26.17;7.38;;;22.50;85.80;;;;;;5061584;28;20056;-52
2022/05/14 11:25:25;;;;;;;25.23;7.47;;;22.50;85.70;;;;;;5089003;28;20487;-48
2022/05/14 11:28:04;;;;;;;24.58;7.63;;;22.50;87.20;;;;;;5082757;28;20216;-57
2022/05/14 11:30:36;;;;;;;24.60;6.88;;;22.30;84.50;;;;;;5080263;28;20048;-52
2022/05/14 11:33:17;;;;;;;21.23;7.10;;;22.30;82.90;;;;;;5076962;28;20444;-55
2022/05/14 11:35:45;;;;;;;22.20;6.82;;;22.10;84.30;;;;;;5079902;28;20044;-54
2022/05/14 11:38:28;;;;;;;20.02;7.28;;;22.30;84.80;;;;;;5082403;28;20064;-55
2022/05/14 11:41:03;;;;;;;18.95;6.93;;;22.30;85.50;;;;;;5075015;28;20076;-47
2022/05/14 11:43:36;;;;;;;19.77;7.60;;;22.40;85.30;;;;;;5075814;28;20059;-55
2022/05/14 11:46:20;;;;;;;;;;;22.30;85.60;;;;;;5087070;28;20055;-56
2022/05/14 11:49:20;;;;;;;19.45;7.07;;;21.80;85.20;;;;;;5063625;28;19924;-53
2022/05/14 11:52:08;;;;;;;17.80;6.63;;;21.80;87.30;;;;;;5078357;28;20056;-50
2022/05/14 11:55:05;;;;;;;24.30;8.15;;;22.00;87.00;;;;;;5081434;28;20406;-55
2022/05/14 11:57:43;;;;;;;18.35;6.63;;;22.10;86.00;;;;;;5077307;28;20241;-55
2022/05/14 12:00:16;;;;;;;20.55;6.82;;;22.40;84.20;;;;;;5081237;28;20078;-54
2022/05/14 12:02:51;;;;;;;20.42;6.80;;;22.50;84.70;;;;;;5076466;28;20123;-53
2022/05/14 12:05:48;;;;;;;18.77;6.72;;;22.30;84.60;;;;;;5050744;28;20049;-54
2022/05/14 12:08:50;;;;;;;20.00;6.22;;;22.10;83.50;;;;;;5051698;28;20051;-55
2022/05/14 12:11:38;;;;;;;15.35;5.93;;;22.20;83.50;;;;;;4988584;28;20062;-45
2022/05/14 12:14:16;;;;;;;21.08;6.00;;;22.40;80.40;;;;;;4992060;28;20227;-56
2022/05/14 12:16:50;;;;;;;20.25;6.38;;;22.50;80.50;;;;;;4991482;28;20057;-54
2022/05/14 12:19:25;;;;;;;20.92;6.97;;;22.70;83.00;;;;;;4977270;28;20555;-54
2022/05/14 12:21:54;;;;;;;22.83;7.45;;;22.70;81.40;;;;;;4962184;28;20457;-58
2022/05/14 12:24:29;;;;;;;20.98;6.65;;;22.70;82.90;;;;;;4962092;28;20062;-53
2022/05/14 12:26:56;;;;;;;22.20;7.05;;;22.60;82.10;;;;;;4970072;28;20058;-54
2022/05/14 12:29:30;;;;;;;21.05;6.50;;;22.40;81.90;;;;;;4969499;28;20086;-51
2022/05/14 12:35:01;;;;;;;14.63;5.78;;;22.50;82.70;;;;;;4943295;28;20149;-54
2022/05/14 12:37:39;;;;;;;25.40;7.38;;;22.70;83.30;;;;;;4973997;28;20050;-52
2022/05/14 12:40:06;;;;;;;18.13;6.13;;;22.90;81.80;;;;;;4964760;28;20129;-49
2022/05/14 12:42:39;;;;;;;17.98;6.35;;;23.00;81.80;;;;;;4961873;28;20070;-54
2022/05/14 12:45:07;;;;;;;18.17;5.72;;;23.10;81.90;;;;;;4959088;28;20058;-53
2022/05/14 12:47:34;;;;;;;17.38;6.20;;;23.10;82.70;;;;;;4968862;28;20121;-56
2022/05/14 12:50:02;;;;;;;20.42;6.38;;;23.20;81.00;;;;;;5061599;28;20097;-52
2022/05/14 12:52:32;;;;;;;16.83;6.55;;;23.20;81.60;;;;;;5080450;28;20051;-53
2022/05/14 12:55:15;;;;;;;15.20;5.97;;;23.00;80.50;;;;;;5080677;28;20055;-57
2022/05/14 12:57:46;;;;;;;19.45;6.30;;;22.90;80.70;;;;;;5079989;28;20530;-55
2022/05/14 13:00:15;;;;;;;16.30;5.45;;;22.80;83.50;;;;;;5079796;28;20605;-55
2022/05/14 13:02:52;;;;;;;19.88;7.32;;;22.70;81.20;;;;;;5044263;28;20138;-53
2022/05/14 13:05:33;;;;;;;18.50;6.55;;;22.90;83.00;;;;;;5081446;28;20052;-55
2022/05/14 13:08:07;;;;;;;18.95;5.93;;;22.70;80.90;;;;;;5080991;28;20080;-55
2022/05/14 13:10:33;;;;;;;18.83;7.00;;;22.60;81.50;;;;;;5078402;28;20057;-55
2022/05/14 13:13:04;;;;;;;21.35;7.13;;;22.60;81.80;;;;;;5062029;28;20040;-56
2022/05/14 13:15:39;;;;;;;23.02;6.63;;;22.50;81.40;;;;;;5080670;28;20494;-55
2022/05/14 13:18:34;;;;;;;19.85;6.60;;;22.50;81.40;;;;;;5080446;28;20143;-53
2022/05/14 13:21:14;;;;;;;21.15;6.68;;;22.20;83.00;;;;;;4978203;28;20674;-55